Time;durP1;ratioP1;P1;durP2;ratioP2;P2;SDS_P1;SDS_P2;PMS_P1;PMS_P2;Temp;Humidity;BMP_temperature;BMP_pressure;BME280_temperature;BME280_humidity;BME280_pressure;Samples;Min_cycle;Max_cycle;Signal;HPM_P1;HPM_P2
2022/11/26 00:02:18;;;;;;;21.30;8.97;;;9.20;89.90;;;;;;6212346;23;20167;-77
2022/11/26 00:04:46;;;;;;;19.17;9.20;;;9.20;90.00;;;;;;6213368;23;20238;-79
2022/11/26 00:07:20;;;;;;;15.87;8.40;;;9.20;90.00;;;;;;6214312;23;20171;-78
2022/11/26 00:09:50;;;;;;;18.60;8.60;;;9.20;90.00;;;;;;6213289;23;20187;-78
2022/11/26 00:12:20;;;;;;;22.43;9.17;;;9.20;90.00;;;;;;6213194;23;20171;-78
2022/11/26 00:14:48;;;;;;;17.33;9.23;;;9.20;90.00;;;;;;6211035;23;20207;-79
2022/11/26 00:17:17;;;;;;;19.20;9.47;;;9.20;90.00;;;;;;6210040;23;20218;-79
2022/11/26 00:19:46;;;;;;;18.13;9.17;;;9.20;90.00;;;;;;6212109;23;20207;-78
2022/11/26 00:22:23;;;;;;;18.30;9.17;;;9.20;89.90;;;;;;6210387;23;20203;-79
2022/11/26 00:24:54;;;;;;;18.33;9.00;;;9.20;89.90;;;;;;6211663;23;20159;-78
2022/11/26 00:27:26;;;;;;;20.10;9.80;;;9.20;89.90;;;;;;6210887;23;20404;-80
2022/11/26 00:29:55;;;;;;;16.70;9.27;;;9.20;90.20;;;;;;6214598;23;20187;-81
2022/11/26 00:32:25;;;;;;;16.43;8.30;;;9.20;90.20;;;;;;6211135;23;20182;-81
2022/11/26 00:34:54;;;;;;;15.97;8.50;;;9.20;90.10;;;;;;6211648;23;20163;-78
2022/11/26 00:37:25;;;;;;;19.67;8.83;;;9.20;90.10;;;;;;6213442;23;20240;-81
2022/11/26 00:39:56;;;;;;;17.97;8.47;;;9.20;90.00;;;;;;6214010;23;20577;-81
2022/11/26 00:42:25;;;;;;;14.97;7.60;;;9.20;90.00;;;;;;6213377;23;20215;-80
2022/11/26 00:44:53;;;;;;;16.93;8.73;;;9.20;89.90;;;;;;6213428;23;20233;-81
2022/11/26 00:47:21;;;;;;;16.10;8.50;;;9.20;89.70;;;;;;6212544;23;20198;-81
2022/11/26 00:49:49;;;;;;;17.53;9.17;;;9.10;89.60;;;;;;6213358;23;20647;-82
2022/11/26 00:52:27;;;;;;;20.48;10.35;;;9.10;89.60;;;;;;6211044;23;20438;-81
2022/11/26 00:54:57;;;;;;;21.00;9.13;;;9.10;89.80;;;;;;6211028;23;20201;-81
2022/11/26 00:57:25;;;;;;;18.97;9.07;;;9.10;89.70;;;;;;6212024;23;20650;-80
2022/11/26 00:59:53;;;;;;;17.73;9.10;;;9.10;89.70;;;;;;6211536;23;20217;-81
2022/11/26 01:02:22;;;;;;;16.30;8.43;;;9.10;89.70;;;;;;6211955;23;20371;-81
2022/11/26 01:04:50;;;;;;;20.27;10.13;;;9.10;89.70;;;;;;6210697;23;20449;-79
2022/11/26 01:07:18;;;;;;;17.60;8.30;;;9.10;89.70;;;;;;6210734;23;20659;-80
2022/11/26 01:09:47;;;;;;;17.87;8.80;;;9.10;89.70;;;;;;6214171;23;20178;-79
2022/11/26 01:12:17;;;;;;;17.67;8.90;;;9.10;89.70;;;;;;6212338;23;20171;-79
2022/11/26 01:14:45;;;;;;;18.00;9.30;;;9.10;89.70;;;;;;6211499;23;20651;-80
2022/11/26 01:17:13;;;;;;;17.63;8.77;;;9.10;89.70;;;;;;6211888;23;20179;-79
2022/11/26 01:19:41;;;;;;;17.57;8.23;;;9.10;89.70;;;;;;6213139;23;20516;-82
2022/11/26 01:22:20;;;;;;;19.87;9.07;;;9.10;89.60;;;;;;6215818;23;20171;-81
2022/11/26 01:24:49;;;;;;;19.53;9.07;;;9.20;89.60;;;;;;6215505;23;20159;-81
2022/11/26 01:27:21;;;;;;;17.40;10.03;;;9.20;89.60;;;;;;6213161;23;20179;-81
2022/11/26 01:29:50;;;;;;;21.63;9.63;;;9.10;89.40;;;;;;6214118;23;20662;-79
2022/11/26 01:32:18;;;;;;;19.10;9.20;;;9.10;89.40;;;;;;6214478;23;20249;-77
2022/11/26 01:34:46;;;;;;;21.93;9.93;;;9.10;89.30;;;;;;6215152;23;20175;-77
2022/11/26 01:37:14;;;;;;;19.90;9.30;;;9.10;89.20;;;;;;6215986;23;20547;-78
2022/11/26 01:39:43;;;;;;;16.97;9.10;;;9.10;89.10;;;;;;6213378;23;20621;-78
2022/11/26 01:42:26;;;;;;;19.50;9.27;;;9.10;89.00;;;;;;6214461;23;20172;-78
2022/11/26 01:44:54;;;;;;;20.50;8.03;;;9.10;89.00;;;;;;6214458;23;20225;-78
2022/11/26 01:47:25;;;;;;;18.83;9.73;;;9.10;89.00;;;;;;6213343;23;20186;-78
2022/11/26 01:50:41;;;;;;;14.20;7.97;;;9.00;88.90;;;;;;6215452;23;20210;-78
2022/11/26 01:53:13;;;;;;;19.60;9.67;;;9.00;88.80;;;;;;6162054;23;20171;-78
2022/11/26 01:55:48;;;;;;;17.50;8.90;;;9.00;88.90;;;;;;6213724;23;20501;-78
2022/11/26 01:58:23;;;;;;;20.07;8.30;;;8.90;88.80;;;;;;6214231;23;20423;-78
2022/11/26 02:00:51;;;;;;;20.27;10.48;;;8.90;88.90;;;;;;6214325;23;20442;-77
2022/11/26 02:03:20;;;;;;;17.00;8.47;;;8.90;89.10;;;;;;6213685;23;20175;-77
2022/11/26 02:05:55;;;;;;;18.97;9.03;;;8.90;89.20;;;;;;6216068;23;20199;-79
2022/11/26 02:08:26;;;;;;;20.20;9.33;;;8.90;89.10;;;;;;6216200;23;20163;-78
2022/11/26 02:10:54;;;;;;;21.80;9.37;;;8.90;89.10;;;;;;6215392;23;20206;-79
2022/11/26 02:13:25;;;;;;;23.63;10.30;;;8.90;89.90;;;;;;6215385;23;20182;-79
2022/11/26 02:16:02;;;;;;;19.63;10.10;;;8.90;89.10;;;;;;6215517;23;20159;-78
2022/11/26 02:18:37;;;;;;;19.70;8.97;;;8.90;89.10;;;;;;6214177;23;20497;-79
2022/11/26 02:21:10;;;;;;;20.00;9.07;;;8.90;88.90;;;;;;6214697;23;20541;-78
2022/11/26 02:24:10;;;;;;;18.63;9.77;;;8.80;88.80;;;;;;6215723;23;20221;-78
2022/11/26 02:27:07;;;;;;;18.30;9.10;;;8.80;88.80;;;;;;6214253;23;20175;-79
2022/11/26 02:30:02;;;;;;;18.87;9.27;;;8.80;88.70;;;;;;6215350;23;20159;-80
2022/11/26 02:32:38;;;;;;;17.87;9.23;;;8.80;88.70;;;;;;6214243;23;20234;-79
2022/11/26 02:35:13;;;;;;;19.83;10.13;;;8.70;88.60;;;;;;6213820;23;20155;-81
2022/11/26 02:37:47;;;;;;;20.57;9.30;;;8.70;88.60;;;;;;6215175;23;20163;-81
2022/11/26 02:40:15;;;;;;;19.57;10.23;;;8.70;88.60;;;;;;6215099;23;20229;-82
2022/11/26 02:42:44;;;;;;;21.93;10.37;;;8.70;88.80;;;;;;6213737;23;20202;-81
2022/11/26 02:45:17;;;;;;;20.70;10.13;;;8.70;88.80;;;;;;6214701;23;20175;-81
2022/11/26 02:47:49;;;;;;;18.70;10.23;;;8.60;88.80;;;;;;6214765;23;20160;-82
2022/11/26 02:50:22;;;;;;;21.87;11.10;;;8.60;88.90;;;;;;6215856;23;20167;-81
2022/11/26 02:52:53;;;;;;;21.37;10.43;;;8.60;88.80;;;;;;6212353;23;20202;-80
2022/11/26 02:55:26;;;;;;;22.23;11.73;;;8.50;88.80;;;;;;6214909;23;20160;-81
2022/11/26 02:57:56;;;;;;;22.47;11.00;;;8.50;89.00;;;;;;6213428;23;20491;-81
2022/11/26 03:00:26;;;;;;;25.30;11.73;;;8.50;89.10;;;;;;6212108;23;20179;-81
2022/11/26 03:03:00;;;;;;;23.33;10.83;;;8.50;89.20;;;;;;6212446;23;20175;-81
2022/11/26 03:05:33;;;;;;;22.63;10.60;;;8.50;89.30;;;;;;6214349;23;20612;-81
2022/11/26 03:08:03;;;;;;;22.90;11.00;;;8.50;89.30;;;;;;6214074;23;20182;-81
2022/11/26 03:10:31;;;;;;;24.87;11.43;;;8.50;89.40;;;;;;6213730;23;20206;-81
2022/11/26 03:13:00;;;;;;;24.47;11.30;;;8.50;89.40;;;;;;6213238;23;20297;-81
2022/11/26 03:15:29;;;;;;;20.03;10.07;;;8.50;89.40;;;;;;6213034;23;20182;-81
2022/11/26 03:17:58;;;;;;;24.23;11.80;;;8.50;89.40;;;;;;6214384;23;20179;-80
2022/11/26 03:20:26;;;;;;;21.73;10.47;;;8.50;89.30;;;;;;6211453;23;20892;-82
2022/11/26 03:22:54;;;;;;;25.80;12.13;;;8.50;89.20;;;;;;6214599;23;20182;-81
2022/11/26 03:25:23;;;;;;;19.60;11.10;;;8.50;89.20;;;;;;6214134;23;20179;-81
2022/11/26 03:27:51;;;;;;;22.17;11.57;;;8.50;89.20;;;;;;6213035;23;20660;-81
2022/11/26 03:30:19;;;;;;;23.03;12.03;;;8.50;89.10;;;;;;6213906;23;20356;-80
2022/11/26 03:32:49;;;;;;;25.17;11.50;;;8.50;89.10;;;;;;6212797;23;20241;-81
2022/11/26 03:35:17;;;;;;;24.23;11.23;;;8.50;89.10;;;;;;6213395;23;20175;-81
2022/11/26 03:37:45;;;;;;;23.70;11.53;;;8.40;89.10;;;;;;6214970;23;20175;-81
2022/11/26 03:40:15;;;;;;;23.63;12.53;;;8.50;89.10;;;;;;6214767;23;20175;-81
2022/11/26 03:42:44;;;;;;;20.33;11.03;;;8.40;88.90;;;;;;6210077;23;20254;-80
2022/11/26 03:45:14;;;;;;;23.90;11.70;;;8.50;88.60;;;;;;6211022;23;20175;-79
2022/11/26 03:47:42;;;;;;;26.30;13.07;;;8.40;88.50;;;;;;6210929;23;20179;-80
2022/11/26 03:50:12;;;;;;;21.70;10.27;;;8.40;88.50;;;;;;6213176;23;20175;-79
2022/11/26 03:52:40;;;;;;;24.23;12.70;;;8.30;88.20;;;;;;6213076;23;20206;-80
2022/11/26 03:55:09;;;;;;;23.80;11.57;;;8.30;88.20;;;;;;6213572;23;20225;-80
2022/11/26 03:57:37;;;;;;;24.30;12.10;;;8.30;88.30;;;;;;6215099;23;20179;-80
2022/11/26 04:00:08;;;;;;;25.20;13.97;;;8.20;88.30;;;;;;6211370;23;20453;-80
2022/11/26 04:02:36;;;;;;;24.83;12.70;;;8.20;88.60;;;;;;6214133;23;20178;-80
2022/11/26 04:05:05;;;;;;;24.87;11.93;;;8.10;88.60;;;;;;6214688;23;20258;-79
2022/11/26 04:07:35;;;;;;;25.30;12.13;;;8.10;88.50;;;;;;6215333;23;20179;-79
2022/11/26 04:10:04;;;;;;;24.70;12.80;;;8.00;88.50;;;;;;6215678;23;20175;-80
2022/11/26 04:12:32;;;;;;;24.23;11.87;;;8.00;88.60;;;;;;6213256;23;20582;-79
2022/11/26 04:15:01;;;;;;;24.80;12.50;;;8.00;88.60;;;;;;6212777;23;20240;-79
2022/11/26 04:17:29;;;;;;;25.80;12.17;;;8.00;88.60;;;;;;6213976;23;20620;-80
2022/11/26 04:19:57;;;;;;;23.40;12.80;;;8.00;88.70;;;;;;6213479;23;20202;-79
2022/11/26 04:22:25;;;;;;;24.70;13.20;;;7.90;88.60;;;;;;6213817;23;20670;-80
2022/11/26 04:24:55;;;;;;;21.20;11.27;;;7.90;88.60;;;;;;6214502;23;20175;-79
2022/11/26 04:27:24;;;;;;;19.87;11.33;;;7.90;88.50;;;;;;6213966;23;20232;-81
2022/11/26 04:29:52;;;;;;;21.73;11.63;;;7.90;88.50;;;;;;6213480;23;20694;-79
2022/11/26 04:32:21;;;;;;;26.57;13.53;;;7.80;88.50;;;;;;6213146;23;20213;-80
2022/11/26 04:34:49;;;;;;;23.00;12.77;;;7.80;88.50;;;;;;6211611;23;20699;-79
2022/11/26 04:37:17;;;;;;;23.27;12.03;;;7.80;88.60;;;;;;6213645;23;20175;-80
2022/11/26 04:39:46;;;;;;;27.83;12.47;;;7.80;88.60;;;;;;6213779;23;20623;-80
2022/11/26 04:42:15;;;;;;;27.70;12.80;;;7.70;88.30;;;;;;6213955;23;20205;-81
2022/11/26 04:44:44;;;;;;;28.20;12.97;;;7.70;88.40;;;;;;6209083;23;20175;-79
2022/11/26 04:47:12;;;;;;;26.00;11.83;;;7.70;88.50;;;;;;6208772;23;20638;-80
2022/11/26 04:49:40;;;;;;;23.37;12.83;;;7.70;88.60;;;;;;6213944;23;20233;-80
2022/11/26 04:52:08;;;;;;;26.20;13.47;;;7.70;88.70;;;;;;6209372;23;20234;-79
2022/11/26 04:54:37;;;;;;;21.67;12.10;;;7.80;88.80;;;;;;6212854;23;20546;-80
2022/11/26 04:57:05;;;;;;;23.30;12.67;;;7.80;88.50;;;;;;6212715;23;20222;-80
2022/11/26 04:59:35;;;;;;;28.87;12.87;;;7.80;88.40;;;;;;6212430;23;20179;-80
2022/11/26 05:02:04;;;;;;;25.77;13.43;;;7.80;88.30;;;;;;6210867;23;20365;-80
2022/11/26 05:04:32;;;;;;;25.80;13.33;;;7.80;88.30;;;;;;6213709;23;20205;-80
2022/11/26 05:07:00;;;;;;;26.87;12.30;;;7.80;88.30;;;;;;6212247;23;20632;-80
2022/11/26 05:09:29;;;;;;;28.17;13.10;;;7.90;88.20;;;;;;6213678;23;20182;-80
2022/11/26 05:11:57;;;;;;;24.57;13.60;;;7.90;88.00;;;;;;6212145;23;20179;-80
2022/11/26 05:14:25;;;;;;;28.07;13.47;;;7.80;87.90;;;;;;6212407;23;20178;-80
2022/11/26 05:16:55;;;;;;;27.27;13.43;;;7.90;87.80;;;;;;6211500;23;20174;-80
2022/11/26 05:19:23;;;;;;;25.17;13.23;;;7.90;87.80;;;;;;6213526;23;20249;-80
2022/11/26 05:21:52;;;;;;;21.67;12.30;;;7.90;87.60;;;;;;6213350;23;20202;-80
2022/11/26 05:24:20;;;;;;;23.77;12.43;;;7.90;87.40;;;;;;6213923;23;20249;-80
2022/11/26 05:26:52;;;;;;;25.10;13.57;;;7.90;87.30;;;;;;6210873;23;20507;-81
2022/11/26 05:29:24;;;;;;;24.35;14.85;;;7.80;87.20;;;;;;6212138;23;20419;-78
2022/11/26 05:31:52;;;;;;;24.30;13.73;;;7.80;87.30;;;;;;6211642;23;20210;-78
2022/11/26 05:34:22;;;;;;;25.97;15.17;;;7.80;87.20;;;;;;6209459;23;20214;-78
2022/11/26 05:36:51;;;;;;;29.80;14.43;;;7.70;87.20;;;;;;6210248;23;20189;-78
2022/11/26 05:39:19;;;;;;;30.80;13.73;;;7.70;87.10;;;;;;6213937;23;20625;-77
2022/11/26 05:41:48;;;;;;;23.37;13.53;;;7.70;87.20;;;;;;6212416;23;20175;-78
2022/11/26 05:44:16;;;;;;;23.73;12.17;;;7.70;87.30;;;;;;6213244;23;20178;-77
2022/11/26 05:46:44;;;;;;;22.20;13.03;;;7.60;87.40;;;;;;6213490;23;20228;-77
2022/11/26 05:49:13;;;;;;;28.47;14.10;;;7.60;87.40;;;;;;6211235;23;20501;-78
2022/11/26 05:51:42;;;;;;;24.93;13.37;;;7.60;87.40;;;;;;6212361;23;20660;-77
2022/11/26 05:54:13;;;;;;;25.30;14.07;;;7.60;87.40;;;;;;6213758;23;20249;-78
2022/11/26 05:56:42;;;;;;;28.17;16.42;;;7.60;87.50;;;;;;6211246;23;20862;-77
2022/11/26 05:59:11;;;;;;;25.80;13.67;;;7.50;88.30;;;;;;6210322;23;20226;-79
2022/11/26 06:01:39;;;;;;;29.33;14.13;;;7.50;88.30;;;;;;6210937;23;20186;-77
2022/11/26 06:04:07;;;;;;;28.17;13.33;;;7.50;88.40;;;;;;6214634;23;20171;-78
2022/11/26 06:06:36;;;;;;;27.27;14.37;;;7.50;88.40;;;;;;6213189;23;20202;-76
2022/11/26 06:09:06;;;;;;;28.40;13.40;;;7.50;88.50;;;;;;6214666;23;20167;-78
2022/11/26 06:11:34;;;;;;;29.40;14.50;;;7.50;88.60;;;;;;6216277;23;20508;-79
2022/11/26 06:14:02;;;;;;;30.07;15.13;;;7.50;88.60;;;;;;6215333;23;20686;-78
2022/11/26 06:16:31;;;;;;;34.13;16.00;;;7.60;88.70;;;;;;6214564;23;20193;-79
2022/11/26 06:18:59;;;;;;;30.80;14.60;;;7.50;88.70;;;;;;6214717;23;20174;-79
2022/11/26 06:21:27;;;;;;;29.90;14.60;;;7.50;88.80;;;;;;6214270;23;20654;-79
2022/11/26 06:23:56;;;;;;;34.73;15.77;;;7.50;89.00;;;;;;6214852;23;20225;-78
2022/11/26 06:26:28;;;;;;;34.77;15.77;;;7.60;89.30;;;;;;6215482;23;20469;-77
2022/11/26 06:28:56;;;;;;;38.63;16.60;;;7.60;89.70;;;;;;6213588;23;20706;-77
2022/11/26 06:31:24;;;;;;;38.77;16.90;;;7.60;89.70;;;;;;6214083;23;20555;-78
2022/11/26 06:33:56;;;;;;;37.03;17.43;;;7.70;89.90;;;;;;6215559;23;20180;-78
2022/11/26 06:36:24;;;;;;;43.00;16.70;;;7.70;90.00;;;;;;6214542;23;20659;-77
2022/11/26 06:38:53;;;;;;;44.70;16.83;;;7.80;90.00;;;;;;6214289;23;20175;-77
2022/11/26 06:41:21;;;;;;;48.75;19.50;;;7.80;90.00;;;;;;6215093;23;20919;-78
2022/11/26 06:43:51;;;;;;;39.57;16.27;;;7.80;90.10;;;;;;6216666;23;20250;-79
2022/11/26 06:46:20;;;;;;;45.43;17.30;;;7.80;90.20;;;;;;6213739;23;20550;-79
2022/11/26 06:48:48;;;;;;;45.37;17.57;;;7.80;90.20;;;;;;6215738;23;20184;-79
2022/11/26 06:51:19;;;;;;;41.27;17.23;;;7.90;90.30;;;;;;6211937;23;20199;-79
2022/11/26 06:53:47;;;;;;;35.73;15.23;;;7.90;90.30;;;;;;6214032;23;20199;-77
2022/11/26 06:56:17;;;;;;;48.13;16.80;;;8.00;90.40;;;;;;6212866;23;20194;-78
2022/11/26 06:58:46;;;;;;;31.20;15.40;;;8.00;90.80;;;;;;6213619;23;20160;-78
2022/11/26 07:01:18;;;;;;;43.10;17.57;;;8.00;90.50;;;;;;6212623;23;20229;-79
2022/11/26 07:03:46;;;;;;;38.70;17.63;;;8.10;90.50;;;;;;6214023;23;20708;-79
2022/11/26 07:06:19;;;;;;;49.50;19.15;;;8.10;90.60;;;;;;6213357;23;20450;-78
2022/11/26 07:08:49;;;;;;;44.30;18.17;;;8.20;90.70;;;;;;6213860;23;20217;-78
2022/11/26 07:11:18;;;;;;;41.03;17.73;;;8.20;90.70;;;;;;6214036;23;20181;-77
2022/11/26 07:13:47;;;;;;;50.00;21.70;;;8.20;90.70;;;;;;6215024;23;20237;-80
2022/11/26 07:16:16;;;;;;;65.43;25.00;;;8.20;90.70;;;;;;6216376;23;20182;-80
2022/11/26 07:18:48;;;;;;;69.80;28.63;;;8.20;90.60;;;;;;6212374;23;20392;-81
2022/11/26 07:21:17;;;;;;;67.57;30.07;;;8.20;90.80;;;;;;6215846;23;20381;-77
2022/11/26 07:23:46;;;;;;;70.77;30.93;;;8.20;90.80;;;;;;6215748;23;20172;-80
2022/11/26 07:26:15;;;;;;;76.33;33.07;;;8.30;90.90;;;;;;6214878;23;20625;-79
2022/11/26 07:28:46;;;;;;;72.10;31.47;;;8.30;91.00;;;;;;6214510;23;20274;-79
2022/11/26 07:31:18;;;;;;;85.15;37.13;;;8.40;91.00;;;;;;6214327;23;20387;-79
2022/11/26 07:33:47;;;;;;;66.97;27.60;;;8.40;91.20;;;;;;6215136;23;20179;-78
2022/11/26 07:36:18;;;;;;;64.20;25.23;;;8.40;91.20;;;;;;6214527;23;20500;-79
2022/11/26 07:38:47;;;;;;;53.90;21.93;;;8.50;91.20;;;;;;6215632;23;20424;-79
2022/11/26 07:41:18;;;;;;;43.67;18.90;;;8.50;91.20;;;;;;6215466;23;20537;-78
2022/11/26 07:43:47;;;;;;;42.17;17.90;;;8.60;91.50;;;;;;6212667;23;20379;-76
2022/11/26 07:46:18;;;;;;;40.10;15.53;;;8.60;91.70;;;;;;6215118;23;20198;-76
2022/11/26 07:48:47;;;;;;;39.10;16.07;;;8.70;91.70;;;;;;6210883;23;20225;-76
2022/11/26 07:51:20;;;;;;;36.70;13.63;;;8.70;91.60;;;;;;6213764;23;20186;-78
2022/11/26 07:53:49;;;;;;;32.87;15.00;;;8.80;91.60;;;;;;6214070;23;20175;-77
2022/11/26 07:56:18;;;;;;;39.27;15.43;;;8.90;91.60;;;;;;6212811;23;20179;-77
2022/11/26 07:58:47;;;;;;;40.00;17.50;;;8.90;91.60;;;;;;6215700;23;20361;-78
2022/11/26 08:01:18;;;;;;;38.93;16.37;;;9.00;91.60;;;;;;6213627;23;20210;-78
2022/11/26 08:03:48;;;;;;;39.67;16.83;;;9.10;91.50;;;;;;6213925;23;20160;-78
2022/11/26 08:06:19;;;;;;;45.53;17.33;;;9.10;91.40;;;;;;6213047;23;20163;-76
2022/11/26 08:08:48;;;;;;;40.27;17.97;;;9.20;91.50;;;;;;6215434;23;20198;-78
2022/11/26 08:11:18;;;;;;;39.80;15.47;;;9.20;91.50;;;;;;6214004;23;20175;-77
2022/11/26 08:13:47;;;;;;;35.30;15.90;;;9.20;91.40;;;;;;6214840;23;20234;-76
2022/11/26 08:16:17;;;;;;;40.70;14.97;;;9.20;91.70;;;;;;6214346;23;20182;-77
2022/11/26 08:18:45;;;;;;;41.50;15.40;;;9.20;91.40;;;;;;6215254;23;20695;-78
2022/11/26 08:21:17;;;;;;;38.63;15.27;;;9.30;91.40;;;;;;6215026;23;20179;-77
2022/11/26 08:23:46;;;;;;;34.77;14.97;;;9.30;91.40;;;;;;6214414;23;20215;-77
2022/11/26 08:26:16;;;;;;;38.40;14.50;;;9.30;91.40;;;;;;6214065;23;20558;-77
2022/11/26 08:28:59;;;;;;;36.77;14.87;;;9.40;91.40;;;;;;6214021;23;20197;-76
2022/11/26 08:31:28;;;;;;;38.07;16.20;;;9.50;91.30;;;;;;6214170;23;20182;-76
2022/11/26 08:33:58;;;;;;;37.70;15.80;;;9.50;91.20;;;;;;6214125;23;20226;-76
2022/11/26 08:36:27;;;;;;;38.10;15.87;;;9.50;91.20;;;;;;6213194;23;20509;-78
2022/11/26 08:38:56;;;;;;;34.23;14.63;;;9.50;91.20;;;;;;6212216;23;20474;-77
2022/11/26 08:41:24;;;;;;;36.70;14.77;;;9.50;91.60;;;;;;6214177;23;20544;-77
2022/11/26 08:43:52;;;;;;;38.93;16.40;;;9.50;91.20;;;;;;6214897;23;20171;-77
2022/11/26 08:46:39;;;;;;;41.53;16.40;;;9.50;91.10;;;;;;6213324;23;20156;-75
2022/11/26 08:49:10;;;;;;;36.13;15.00;;;9.60;91.10;;;;;;6213984;23;20187;-76
2022/11/26 08:51:39;;;;;;;38.60;16.10;;;9.60;91.10;;;;;;6214961;23;20199;-77
2022/11/26 08:54:07;;;;;;;32.80;15.73;;;9.60;91.20;;;;;;6214991;23;20252;-77
2022/11/26 08:56:36;;;;;;;38.90;16.33;;;9.60;91.10;;;;;;6215371;23;20221;-77
2022/11/26 08:59:04;;;;;;;40.33;16.63;;;9.60;91.10;;;;;;6213783;23;20206;-77
2022/11/26 09:01:33;;;;;;;36.97;15.30;;;9.60;91.10;;;;;;6211891;23;20182;-79
2022/11/26 09:04:04;;;;;;;35.90;16.10;;;9.60;91.10;;;;;;6214026;23;20175;-78
2022/11/26 09:06:35;;;;;;;35.63;15.23;;;9.60;91.10;;;;;;6213852;23;20159;-76
2022/11/26 09:09:16;;;;;;;37.70;17.30;;;9.60;91.10;;;;;;6214267;23;20155;-77
2022/11/26 09:11:47;;;;;;;40.37;17.43;;;9.70;91.20;;;;;;6212729;23;20159;-77
2022/11/26 09:14:19;;;;;;;40.87;16.80;;;9.70;91.20;;;;;;6214798;23;20186;-76
2022/11/26 09:16:47;;;;;;;42.93;17.03;;;9.70;91.10;;;;;;6214790;23;20413;-79
2022/11/26 09:19:18;;;;;;;37.93;16.47;;;9.70;91.20;;;;;;6214706;23;20177;-76
2022/11/26 09:21:47;;;;;;;45.55;17.92;;;9.80;91.20;;;;;;6212595;23;20919;-76
2022/11/26 09:24:16;;;;;;;44.83;17.73;;;9.80;91.30;;;;;;6214324;23;20222;-76
2022/11/26 09:26:47;;;;;;;36.33;16.03;;;9.90;91.40;;;;;;6213948;23;20207;-77
2022/11/26 09:29:17;;;;;;;38.50;16.10;;;9.90;91.40;;;;;;6214411;23;20171;-78
2022/11/26 09:31:46;;;;;;;36.20;16.63;;;10.00;91.50;;;;;;6210781;23;20206;-77
2022/11/26 09:34:37;;;;;;;39.47;17.87;;;10.10;91.30;;;;;;6211319;23;20230;-75
2022/11/26 09:37:06;;;;;;;43.23;17.90;;;10.10;91.00;;;;;;6213025;23;20162;-78
2022/11/26 09:39:35;;;;;;;41.33;16.77;;;10.10;90.90;;;;;;6213811;23;20175;-75
2022/11/26 09:42:06;;;;;;;42.17;17.47;;;10.10;90.80;;;;;;6214311;23;20577;-74
2022/11/26 09:44:53;;;;;;;41.67;16.40;;;10.10;90.80;;;;;;6216959;23;20156;-75
2022/11/26 09:47:23;;;;;;;37.23;17.07;;;10.10;91.00;;;;;;6214432;23;20534;-75
2022/11/26 09:50:03;;;;;;;40.80;17.57;;;10.20;90.90;;;;;;6215563;23;20160;-77
2022/11/26 09:52:36;;;;;;;42.60;18.97;;;10.20;90.90;;;;;;6215450;23;20249;-76
2022/11/26 09:55:13;;;;;;;37.00;16.40;;;10.20;90.80;;;;;;6215843;23;20175;-75
2022/11/26 09:57:43;;;;;;;46.80;19.47;;;10.20;90.90;;;;;;6213207;23;20159;-78
2022/11/26 10:00:23;;;;;;;43.10;18.37;;;10.30;91.00;;;;;;6214717;23;20242;-76
2022/11/26 10:02:53;;;;;;;43.33;18.50;;;10.30;91.00;;;;;;6215699;23;20163;-76
2022/11/26 10:05:34;;;;;;;35.50;16.07;;;10.30;91.00;;;;;;6214615;23;20175;-79
2022/11/26 10:08:08;;;;;;;36.60;16.43;;;10.40;91.00;;;;;;6214976;23;20188;-76
2022/11/26 10:10:50;;;;;;;34.67;16.13;;;10.50;91.10;;;;;;6215127;23;20609;-80
2022/11/26 10:13:25;;;;;;;39.57;17.30;;;10.50;90.80;;;;;;6216818;23;20190;-76
2022/11/26 10:16:05;;;;;;;35.37;15.50;;;10.40;90.60;;;;;;6214478;23;20179;-79
2022/11/26 10:18:43;;;;;;;38.30;18.03;;;10.30;90.50;;;;;;6213632;23;20191;-80
2022/11/26 10:21:20;;;;;;;41.13;17.60;;;10.30;90.50;;;;;;6214431;23;20169;-76
2022/11/26 10:24:14;;;;;;;34.50;16.10;;;10.20;90.70;;;;;;6213981;23;20231;-78
2022/11/26 10:26:43;;;;;;;35.60;16.67;;;10.20;90.80;;;;;;6215404;23;20155;-77
2022/11/26 10:29:21;;;;;;;35.47;16.13;;;10.20;90.80;;;;;;6215676;23;20222;-80
2022/11/26 10:31:55;;;;;;;31.57;14.30;;;10.20;90.80;;;;;;6214057;23;20159;-83
2022/11/26 10:34:29;;;;;;;31.30;15.10;;;10.10;90.70;;;;;;6214018;23;20162;-80
2022/11/26 10:37:07;;;;;;;36.38;16.42;;;10.10;90.70;;;;;;6213887;23;20388;-78
2022/11/26 10:39:36;;;;;;;35.50;15.17;;;10.10;90.90;;;;;;6215272;23;20213;-76
2022/11/26 10:42:13;;;;;;;36.00;15.57;;;10.10;91.00;;;;;;6215664;23;20229;-80
2022/11/26 10:44:41;;;;;;;35.73;15.87;;;10.10;91.10;;;;;;6214282;23;20159;-79
2022/11/26 10:47:21;;;;;;;34.90;16.47;;;10.20;91.20;;;;;;6215751;23;20506;-79
2022/11/26 10:49:51;;;;;;;42.63;18.10;;;10.30;91.40;;;;;;6213151;23;20435;-77
2022/11/26 10:52:25;;;;;;;44.27;18.70;;;10.40;91.30;;;;;;6214780;23;20233;-81
2022/11/26 10:55:18;;;;;;;42.27;19.00;;;10.40;91.10;;;;;;6215180;23;20163;-79
2022/11/26 10:57:51;;;;;;;40.20;18.57;;;10.40;91.00;;;;;;6213479;23;20159;-77
2022/11/26 11:00:35;;;;;;;35.80;16.88;;;10.50;91.10;;;;;;6212363;23;20391;-78
2022/11/26 11:03:06;;;;;;;42.57;16.77;;;10.60;91.10;;;;;;6212189;23;20163;-77
2022/11/26 11:05:35;;;;;;;37.83;17.00;;;10.70;91.10;;;;;;6214884;23;20210;-82
2022/11/26 11:08:05;;;;;;;42.03;17.00;;;10.70;90.90;;;;;;6211881;23;20210;-80
2022/11/26 11:10:34;;;;;;;38.10;18.20;;;10.70;90.80;;;;;;6211265;23;20175;-79
2022/11/26 11:13:11;;;;;;;42.33;18.10;;;10.60;90.80;;;;;;6211127;23;20175;-80
2022/11/26 11:15:41;;;;;;;38.33;17.67;;;10.70;90.90;;;;;;6214513;23;20229;-77
2022/11/26 11:18:19;;;;;;;35.20;16.20;;;10.80;91.00;;;;;;6214208;23;20186;-77
2022/11/26 11:20:54;;;;;;;34.70;16.50;;;10.90;90.80;;;;;;6215688;23;20477;-76
2022/11/26 11:23:25;;;;;;;35.93;16.93;;;10.80;90.30;;;;;;6212186;23;20205;-79
2022/11/26 11:26:19;;;;;;;38.22;17.60;;;10.80;90.40;;;;;;6211863;23;20391;-80
2022/11/26 11:28:49;;;;;;;30.97;15.37;;;10.80;90.40;;;;;;6211931;23;20159;-77
2022/11/26 11:31:20;;;;;;;38.40;16.63;;;10.80;90.40;;;;;;6212712;23;20182;-77
2022/11/26 11:33:49;;;;;;;33.83;16.10;;;10.80;90.50;;;;;;6213489;23;20202;-81
2022/11/26 11:36:25;;;;;;;37.60;16.87;;;10.90;90.50;;;;;;6214923;23;20223;-79
2022/11/26 11:38:56;;;;;;;35.00;16.43;;;10.90;90.40;;;;;;6213347;23;20170;-77
2022/11/26 11:41:32;;;;;;;41.87;17.47;;;10.90;90.40;;;;;;6211552;23;20581;-81
2022/11/26 11:44:06;;;;;;;37.63;16.70;;;11.00;90.40;;;;;;6214023;23;20474;-79
2022/11/26 11:47:06;;;;;;;33.07;16.07;;;11.10;90.50;;;;;;6212922;23;20159;-76
2022/11/26 11:49:58;;;;;;;38.70;18.30;;;11.00;90.20;;;;;;6213023;23;20159;-77
2022/11/26 11:52:36;;;;;;;39.25;19.45;;;11.00;90.20;;;;;;6212248;23;20768;-77
2022/11/26 11:55:18;;;;;;;38.53;18.63;;;11.10;90.30;;;;;;6211307;23;20419;-78
2022/11/26 11:58:06;;;;;;;40.23;20.20;;;11.10;90.30;;;;;;6210331;23;20171;-75
2022/11/26 12:00:44;;;;;;;44.13;18.97;;;11.20;90.30;;;;;;6204815;23;20518;-79
2022/11/26 12:03:45;;;;;;;39.13;18.23;;;11.20;90.00;;;;;;6212535;23;20225;-78
2022/11/26 12:06:23;;;;;;;44.22;20.58;;;11.20;89.70;;;;;;6208435;23;20404;-76
2022/11/26 12:09:03;;;;;;;38.83;19.63;;;11.20;89.60;;;;;;6210228;23;20159;-78
2022/11/26 12:11:47;;;;;;;38.90;18.67;;;11.20;89.70;;;;;;6211896;23;20170;-80
2022/11/26 12:14:21;;;;;;;43.37;18.90;;;11.10;89.40;;;;;;6211725;23;20246;-78
2022/11/26 12:16:54;;;;;;;41.63;20.17;;;11.10;90.00;;;;;;6209229;23;20233;-77
2022/11/26 12:19:34;;;;;;;43.93;18.87;;;10.90;89.60;;;;;;6210876;23;20156;-76
2022/11/26 12:22:08;;;;;;;42.50;19.40;;;10.70;89.90;;;;;;6211718;23;20163;-76
2022/11/26 12:24:44;;;;;;;45.07;19.50;;;10.70;90.00;;;;;;6209052;23;20607;-76
2022/11/26 12:27:27;;;;;;;38.07;17.40;;;10.70;90.10;;;;;;6209503;23;20162;-81
2022/11/26 12:30:00;;;;;;;41.57;18.97;;;10.70;90.30;;;;;;6209832;23;20508;-79
2022/11/26 12:32:34;;;;;;;39.67;17.33;;;10.60;90.50;;;;;;6209314;23;20246;-78
2022/11/26 12:35:07;;;;;;;37.57;16.97;;;10.50;90.40;;;;;;6213379;23;20228;-79
2022/11/26 12:37:40;;;;;;;38.53;17.60;;;10.50;90.40;;;;;;6211754;23;20179;-80
2022/11/26 12:40:19;;;;;;;39.83;17.50;;;10.50;90.50;;;;;;6212898;23;20581;-77
2022/11/26 12:42:58;;;;;;;41.80;19.38;;;10.40;90.60;;;;;;6212168;23;20387;-77
2022/11/26 12:45:41;;;;;;;42.20;18.73;;;10.50;90.80;;;;;;6213286;23;20229;-75
2022/11/26 12:48:21;;;;;;;32.97;15.87;;;10.50;90.90;;;;;;6212551;23;20156;-78
2022/11/26 12:50:54;;;;;;;36.23;17.57;;;10.60;90.90;;;;;;6211124;23;20241;-77
2022/11/26 12:53:34;;;;;;;33.47;15.70;;;10.70;91.00;;;;;;6212897;23;20186;-77
2022/11/26 12:56:09;;;;;;;30.33;14.40;;;10.70;91.30;;;;;;6210275;23;20186;-77
2022/11/26 12:58:49;;;;;;;29.77;15.20;;;10.70;91.20;;;;;;6212993;23;20166;-79
2022/11/26 13:01:18;;;;;;;31.13;15.57;;;10.80;90.70;;;;;;6211850;23;20159;-76